sensor_id;sensor_type;location;lat;lon;timestamp;pressure;altitude;pressure_sealevel;temperature;humidity
6530;BME280;3298;42.688;23.366;2023-03-23T00:02:22;51995.44;;;-145.06;100.00
6530;BME280;3298;42.688;23.366;2023-03-23T00:04:48;51991.34;;;-145.06;100.00
6530;BME280;3298;42.688;23.366;2023-03-23T00:07:17;52058.91;;;-145.06;100.00
6530;BME280;3298;42.688;23.366;2023-03-23T00:09:46;52042.53;;;-145.06;100.00
6530;BME280;3298;42.688;23.366;2023-03-23T00:12:18;52028.19;;;-145.06;100.00
6530;BME280;3298;42.688;23.366;2023-03-23T00:14:45;52017.97;;;-145.06;100.00
6530;BME280;3298;42.688;23.366;2023-03-23T00:17:13;52001.59;;;-145.06;100.00
6530;BME280;3298;42.688;23.366;2023-03-23T00:19:40;52003.63;;;-145.06;100.00
6530;BME280;3298;42.688;23.366;2023-03-23T00:22:12;51993.41;;;-145.06;99.67
6530;BME280;3298;42.688;23.366;2023-03-23T00:24:41;52028.19;;;-145.06;100.00
6530;BME280;3298;42.688;23.366;2023-03-23T00:27:08;52042.53;;;-145.06;100.00
6530;BME280;3298;42.688;23.366;2023-03-23T00:29:38;52048.66;;;-145.06;100.00
6530;BME280;3298;42.688;23.366;2023-03-23T00:32:05;52054.81;;;-145.06;100.00
6530;BME280;3298;42.688;23.366;2023-03-23T00:34:32;52048.66;;;-145.06;100.00
6530;BME280;3298;42.688;23.366;2023-03-23T00:37:00;52030.25;;;-145.06;100.00
6530;BME280;3298;42.688;23.366;2023-03-23T00:39:27;52069.13;;;-145.06;100.00
6530;BME280;3298;42.688;23.366;2023-03-23T00:41:56;52054.81;;;-145.06;100.00
6530;BME280;3298;42.688;23.366;2023-03-23T00:44:26;52065.03;;;-145.06;100.00
6530;BME280;3298;42.688;23.366;2023-03-23T00:46:54;52048.66;;;-145.06;100.00
6530;BME280;3298;42.688;23.366;2023-03-23T00:49:22;52026.16;;;-145.06;100.00
6530;BME280;3298;42.688;23.366;2023-03-23T00:51:51;52032.28;;;-145.06;100.00
6530;BME280;3298;42.688;23.366;2023-03-23T00:54:17;52030.25;;;-145.06;100.00
6530;BME280;3298;42.688;23.366;2023-03-23T00:56:45;52034.34;;;-145.06;100.00
6530;BME280;3298;42.688;23.366;2023-03-23T00:59:13;52046.63;;;-145.06;100.00
6530;BME280;3298;42.688;23.366;2023-03-23T01:01:40;52026.16;;;-145.06;100.00
6530;BME280;3298;42.688;23.366;2023-03-23T01:04:08;52042.53;;;-145.06;100.00
6530;BME280;3298;42.688;23.366;2023-03-23T01:06:39;52060.94;;;-145.06;100.00
6530;BME280;3298;42.688;23.366;2023-03-23T01:09:07;52038.44;;;-145.06;100.00
6530;BME280;3298;42.688;23.366;2023-03-23T01:11:35;52067.09;;;-145.06;100.00
6530;BME280;3298;42.688;23.366;2023-03-23T01:14:02;52105.97;;;-145.06;100.00
6530;BME280;3298;42.688;23.366;2023-03-23T01:16:31;52122.34;;;-145.06;100.00
6530;BME280;3298;42.688;23.366;2023-03-23T01:18:57;52108.03;;;-145.06;100.00
6530;BME280;3298;42.688;23.366;2023-03-23T01:21:24;52114.16;;;-145.06;100.00
6530;BME280;3298;42.688;23.366;2023-03-23T01:23:51;52097.78;;;-145.06;100.00
6530;BME280;3298;42.688;23.366;2023-03-23T01:26:20;52179.69;;;-145.06;100.00
6530;BME280;3298;42.688;23.366;2023-03-23T01:28:47;52234.94;;;-145.06;100.00
6530;BME280;3298;42.688;23.366;2023-03-23T01:31:17;52253.38;;;-145.06;100.00
6530;BME280;3298;42.688;23.366;2023-03-23T01:33:45;52368.00;;;-145.06;100.00
6530;BME280;3298;42.688;23.366;2023-03-23T01:36:15;52404.84;;;-145.06;100.00
6530;BME280;3298;42.688;23.366;2023-03-23T01:38:43;52488.78;;;-145.06;100.00
6530;BME280;3298;42.688;23.366;2023-03-23T01:41:11;52499.03;;;-145.06;100.00
6530;BME280;3298;42.688;23.366;2023-03-23T01:43:54;52527.69;;;-145.06;100.00
6530;BME280;3298;42.688;23.366;2023-03-23T01:46:20;52544.06;;;-145.06;100.00
6530;BME280;3298;42.688;23.366;2023-03-23T01:48:50;52494.94;;;-145.06;100.00
6530;BME280;3298;42.688;23.366;2023-03-23T01:51:18;52458.06;;;-145.06;100.00
6530;BME280;3298;42.688;23.366;2023-03-23T01:53:48;52408.94;;;-145.06;100.00
6530;BME280;3298;42.688;23.366;2023-03-23T01:56:20;52400.75;;;-145.06;100.00
6530;BME280;3298;42.688;23.366;2023-03-23T01:58:50;52378.25;;;-145.06;100.00
6530;BME280;3298;42.688;23.366;2023-03-23T02:01:17;52341.38;;;-145.06;100.00
6530;BME280;3298;42.688;23.366;2023-03-23T02:03:48;52357.75;;;-145.06;100.00
6530;BME280;3298;42.688;23.366;2023-03-23T02:06:15;52314.78;;;-145.06;100.00
6530;BME280;3298;42.688;23.366;2023-03-23T02:08:43;52253.38;;;-145.06;100.00
6530;BME280;3298;42.688;23.366;2023-03-23T02:11:15;52202.19;;;-145.06;100.00
6530;BME280;3298;42.688;23.366;2023-03-23T02:13:42;52177.63;;;-145.06;100.00
6530;BME280;3298;42.688;23.366;2023-03-23T02:16:14;52200.16;;;-145.06;100.00
6530;BME280;3298;42.688;23.366;2023-03-23T02:18:53;52241.09;;;-145.06;100.00
6530;BME280;3298;42.688;23.366;2023-03-23T02:21:57;52245.19;;;-145.06;100.00
6530;BME280;3298;42.688;23.366;2023-03-23T02:24:55;52243.13;;;-145.06;100.00
6530;BME280;3298;42.688;23.366;2023-03-23T02:30:35;52318.88;;;-145.06;100.00
6530;BME280;3298;42.688;23.366;2023-03-23T02:33:21;52224.72;;;-145.06;100.00
6530;BME280;3298;42.688;23.366;2023-03-23T02:35:57;52122.34;;;-145.06;100.00
6530;BME280;3298;42.688;23.366;2023-03-23T02:38:30;52097.78;;;-145.06;100.00
6530;BME280;3298;42.688;23.366;2023-03-23T02:41:00;52155.13;;;-145.06;100.00
6530;BME280;3298;42.688;23.366;2023-03-23T02:43:30;52095.75;;;-145.06;100.00
6530;BME280;3298;42.688;23.366;2023-03-23T02:46:00;52071.19;;;-145.06;100.00
6530;BME280;3298;42.688;23.366;2023-03-23T02:48:30;52085.50;;;-145.06;100.00
6530;BME280;3298;42.688;23.366;2023-03-23T02:50:58;52065.03;;;-145.06;100.00
6530;BME280;3298;42.688;23.366;2023-03-23T02:53:28;52050.72;;;-145.06;100.00
6530;BME280;3298;42.688;23.366;2023-03-23T02:55:57;52058.91;;;-145.06;100.00
6530;BME280;3298;42.688;23.366;2023-03-23T02:58:27;52069.13;;;-145.06;100.00
6530;BME280;3298;42.688;23.366;2023-03-23T03:00:54;52073.22;;;-145.06;100.00
6530;BME280;3298;42.688;23.366;2023-03-23T03:03:23;52069.13;;;-145.06;100.00
6530;BME280;3298;42.688;23.366;2023-03-23T03:06:00;52015.91;;;-145.06;100.00
6530;BME280;3298;42.688;23.366;2023-03-23T03:08:36;51995.44;;;-145.06;98.69
6530;BME280;3298;42.688;23.366;2023-03-23T03:11:08;51977.03;;;-145.06;100.00
6530;BME280;3298;42.688;23.366;2023-03-23T03:13:42;52005.69;;;-145.06;100.00
6530;BME280;3298;42.688;23.366;2023-03-23T03:16:19;52015.91;;;-145.06;99.32
6530;BME280;3298;42.688;23.366;2023-03-23T03:18:54;51991.34;;;-145.06;98.43
6530;BME280;3298;42.688;23.366;2023-03-23T03:21:27;51974.97;;;-145.06;98.42
6530;BME280;3298;42.688;23.366;2023-03-23T03:23:56;51991.34;;;-145.06;100.00
6530;BME280;3298;42.688;23.366;2023-03-23T03:26:26;51962.69;;;-145.06;100.00
6530;BME280;3298;42.688;23.366;2023-03-23T03:28:55;52011.81;;;-145.06;100.00
6530;BME280;3298;42.688;23.366;2023-03-23T03:31:25;52015.91;;;-145.06;100.00
6530;BME280;3298;42.688;23.366;2023-03-23T03:33:53;52015.91;;;-145.06;100.00
6530;BME280;3298;42.688;23.366;2023-03-23T03:36:26;52013.88;;;-145.06;100.00
6530;BME280;3298;42.688;23.366;2023-03-23T03:39:00;51999.53;;;-145.06;100.00
6530;BME280;3298;42.688;23.366;2023-03-23T03:41:31;51993.41;;;-145.06;100.00
6530;BME280;3298;42.688;23.366;2023-03-23T03:43:58;52024.09;;;-145.06;100.00
6530;BME280;3298;42.688;23.366;2023-03-23T03:46:25;52005.69;;;-145.06;100.00
6530;BME280;3298;42.688;23.366;2023-03-23T03:48:55;52011.81;;;-145.06;100.00
6530;BME280;3298;42.688;23.366;2023-03-23T03:51:22;52040.47;;;-145.06;100.00
6530;BME280;3298;42.688;23.366;2023-03-23T03:53:51;52005.69;;;-145.06;100.00
6530;BME280;3298;42.688;23.366;2023-03-23T03:56:18;52020.00;;;-145.06;100.00
6530;BME280;3298;42.688;23.366;2023-03-23T03:58:45;51985.22;;;-145.06;100.00
6530;BME280;3298;42.688;23.366;2023-03-23T04:01:14;52024.09;;;-145.06;100.00
6530;BME280;3298;42.688;23.366;2023-03-23T04:03:41;52009.78;;;-145.06;100.00
6530;BME280;3298;42.688;23.366;2023-03-23T04:06:08;51995.44;;;-145.06;100.00
6530;BME280;3298;42.688;23.366;2023-03-23T04:08:38;52013.88;;;-145.06;100.00
6530;BME280;3298;42.688;23.366;2023-03-23T04:11:08;52054.81;;;-145.06;100.00
6530;BME280;3298;42.688;23.366;2023-03-23T04:13:35;52015.91;;;-145.06;100.00
6530;BME280;3298;42.688;23.366;2023-03-23T04:16:02;52026.16;;;-145.06;100.00
6530;BME280;3298;42.688;23.366;2023-03-23T04:18:30;52040.47;;;-145.06;100.00
6530;BME280;3298;42.688;23.366;2023-03-23T04:20:58;52020.00;;;-145.06;100.00
6530;BME280;3298;42.688;23.366;2023-03-23T04:23:27;52007.72;;;-145.06;100.00
6530;BME280;3298;42.688;23.366;2023-03-23T04:25:56;51987.25;;;-145.06;98.22
6530;BME280;3298;42.688;23.366;2023-03-23T04:28:25;51972.94;;;-145.06;97.95
6530;BME280;3298;42.688;23.366;2023-03-23T04:30:53;51958.59;;;-145.06;97.34
6530;BME280;3298;42.688;23.366;2023-03-23T04:33:22;51979.06;;;-145.06;94.89
6530;BME280;3298;42.688;23.366;2023-03-23T04:35:50;51950.41;;;-145.06;94.95
6530;BME280;3298;42.688;23.366;2023-03-23T04:38:20;51979.06;;;-145.06;95.77
6530;BME280;3298;42.688;23.366;2023-03-23T04:40:51;51950.41;;;-145.06;96.11
6530;BME280;3298;42.688;23.366;2023-03-23T04:43:19;51966.78;;;-145.06;98.87
6530;BME280;3298;42.688;23.366;2023-03-23T04:45:52;51999.53;;;-145.06;99.81
6530;BME280;3298;42.688;23.366;2023-03-23T04:48:21;51993.41;;;-145.06;100.00
6530;BME280;3298;42.688;23.366;2023-03-23T04:50:48;52020.00;;;-145.06;99.21
6530;BME280;3298;42.688;23.366;2023-03-23T04:53:16;51993.41;;;-145.06;98.80
6530;BME280;3298;42.688;23.366;2023-03-23T04:55:43;51979.06;;;-145.06;98.93
6530;BME280;3298;42.688;23.366;2023-03-23T04:58:10;51966.78;;;-145.06;99.34
6530;BME280;3298;42.688;23.366;2023-03-23T05:00:40;51977.03;;;-145.06;97.98
6530;BME280;3298;42.688;23.366;2023-03-23T05:03:10;51962.69;;;-145.06;97.71
6530;BME280;3298;42.688;23.366;2023-03-23T05:05:41;52003.63;;;-145.06;98.62
6530;BME280;3298;42.688;23.366;2023-03-23T05:08:12;51991.34;;;-145.06;99.37
6530;BME280;3298;42.688;23.366;2023-03-23T05:10:39;51979.06;;;-145.06;96.42
6530;BME280;3298;42.688;23.366;2023-03-23T05:13:06;51989.31;;;-145.06;96.06
6530;BME280;3298;42.688;23.366;2023-03-23T05:15:32;51962.69;;;-145.06;94.89
6530;BME280;3298;42.688;23.366;2023-03-23T05:17:59;51917.66;;;-145.06;95.28
6530;BME280;3298;42.688;23.366;2023-03-23T05:20:27;51970.88;;;-145.06;95.72
6530;BME280;3298;42.688;23.366;2023-03-23T05:22:55;51954.50;;;-145.06;95.55
6530;BME280;3298;42.688;23.366;2023-03-23T05:25:23;51972.94;;;-145.06;96.57
6530;BME280;3298;42.688;23.366;2023-03-23T05:27:49;51970.88;;;-145.06;96.90
6530;BME280;3298;42.688;23.366;2023-03-23T05:30:19;51985.22;;;-145.06;97.02
6530;BME280;3298;42.688;23.366;2023-03-23T05:32:46;51970.88;;;-145.06;95.70
6530;BME280;3298;42.688;23.366;2023-03-23T05:35:16;51960.66;;;-145.06;93.45
6530;BME280;3298;42.688;23.366;2023-03-23T05:37:45;51942.22;;;-145.06;93.08
6530;BME280;3298;42.688;23.366;2023-03-23T05:40:12;51946.31;;;-145.06;94.15
6530;BME280;3298;42.688;23.366;2023-03-23T05:42:40;51958.59;;;-145.06;94.05
6530;BME280;3298;42.688;23.366;2023-03-23T05:45:08;51893.09;;;-145.06;92.41
6530;BME280;3298;42.688;23.366;2023-03-23T05:47:36;51925.84;;;-145.06;91.84
6530;BME280;3298;42.688;23.366;2023-03-23T05:50:04;51919.72;;;-145.06;89.47
6530;BME280;3298;42.688;23.366;2023-03-23T05:52:31;51923.81;;;-145.06;89.12
6530;BME280;3298;42.688;23.366;2023-03-23T05:55:03;51911.53;;;-145.06;87.88
6530;BME280;3298;42.688;23.366;2023-03-23T05:57:30;51880.81;;;-145.06;85.01
6530;BME280;3298;42.688;23.366;2023-03-23T05:59:57;51868.56;;;-145.06;84.44
6530;BME280;3298;42.688;23.366;2023-03-23T06:02:25;51913.56;;;-145.06;84.36
6530;BME280;3298;42.688;23.366;2023-03-23T06:04:54;51913.56;;;-145.06;85.49
6530;BME280;3298;42.688;23.366;2023-03-23T06:07:23;51866.50;;;-145.06;84.02
6530;BME280;3298;42.688;23.366;2023-03-23T06:09:50;51882.88;;;-145.06;83.73
6530;BME280;3298;42.688;23.366;2023-03-23T06:12:19;51858.31;;;-145.06;82.64
6530;BME280;3298;42.688;23.366;2023-03-23T06:14:46;51893.09;;;-145.06;82.06
6530;BME280;3298;42.688;23.366;2023-03-23T06:17:14;51856.28;;;-145.06;80.44
6530;BME280;3298;42.688;23.366;2023-03-23T06:19:41;51852.19;;;-145.06;80.68
6530;BME280;3298;42.688;23.366;2023-03-23T06:22:08;51844.00;;;-145.06;80.72
6530;BME280;3298;42.688;23.366;2023-03-23T06:24:35;51876.75;;;-145.06;81.99
6530;BME280;3298;42.688;23.366;2023-03-23T06:27:01;51950.41;;;-145.06;78.62
6530;BME280;3298;42.688;23.366;2023-03-23T06:29:30;51823.53;;;-145.06;77.16
6530;BME280;3298;42.688;23.366;2023-03-23T06:32:00;51833.75;;;-145.06;75.89
6530;BME280;3298;42.688;23.366;2023-03-23T06:34:29;51841.94;;;-145.06;75.29
6530;BME280;3298;42.688;23.366;2023-03-23T06:36:56;51835.81;;;-145.06;75.94
6530;BME280;3298;42.688;23.366;2023-03-23T06:39:23;51821.47;;;-145.06;75.64
6530;BME280;3298;42.688;23.366;2023-03-23T06:41:50;51844.00;;;-145.06;74.40
6530;BME280;3298;42.688;23.366;2023-03-23T06:44:17;51833.75;;;-145.06;75.44
6530;BME280;3298;42.688;23.366;2023-03-23T06:46:45;51839.91;;;-145.06;78.13
6530;BME280;3298;42.688;23.366;2023-03-23T06:49:13;51835.81;;;-145.06;76.26
6530;BME280;3298;42.688;23.366;2023-03-23T06:51:40;51839.91;;;-145.06;76.56
6530;BME280;3298;42.688;23.366;2023-03-23T06:54:07;51850.13;;;-145.06;77.22
6530;BME280;3298;42.688;23.366;2023-03-23T06:56:34;51839.91;;;-145.06;76.44
6530;BME280;3298;42.688;23.366;2023-03-23T06:59:01;51856.28;;;-145.06;77.91
6530;BME280;3298;42.688;23.366;2023-03-23T07:01:28;51848.09;;;-145.06;76.54
6530;BME280;3298;42.688;23.366;2023-03-23T07:03:57;51839.91;;;-145.06;75.47
6530;BME280;3298;42.688;23.366;2023-03-23T07:06:24;51813.28;;;-145.06;76.50
6530;BME280;3298;42.688;23.366;2023-03-23T07:08:51;51864.47;;;-145.06;77.49
6530;BME280;3298;42.688;23.366;2023-03-23T07:11:18;51848.09;;;-145.06;76.49
6530;BME280;3298;42.688;23.366;2023-03-23T07:13:45;51856.28;;;-145.06;76.98
6530;BME280;3298;42.688;23.366;2023-03-23T07:16:12;51852.19;;;-145.06;76.62
6530;BME280;3298;42.688;23.366;2023-03-23T07:18:39;51813.28;;;-145.06;77.79
6530;BME280;3298;42.688;23.366;2023-03-23T07:21:07;51868.56;;;-145.06;77.36
6530;BME280;3298;42.688;23.366;2023-03-23T07:23:34;51839.91;;;-145.06;76.73
6530;BME280;3298;42.688;23.366;2023-03-23T07:26:01;51841.94;;;-145.06;76.18
6530;BME280;3298;42.688;23.366;2023-03-23T07:28:28;51837.84;;;-145.06;76.31
6530;BME280;3298;42.688;23.366;2023-03-23T07:30:55;51852.19;;;-145.06;76.20
6530;BME280;3298;42.688;23.366;2023-03-23T07:33:22;51876.75;;;-145.06;76.27
6530;BME280;3298;42.688;23.366;2023-03-23T07:35:48;51848.09;;;-145.06;74.13
6530;BME280;3298;42.688;23.366;2023-03-23T07:38:17;51844.00;;;-145.06;75.01
6530;BME280;3298;42.688;23.366;2023-03-23T07:40:45;51860.38;;;-145.06;75.46
6530;BME280;3298;42.688;23.366;2023-03-23T07:43:12;51844.00;;;-145.06;73.33
6530;BME280;3298;42.688;23.366;2023-03-23T07:45:38;51860.38;;;-145.06;74.58
6530;BME280;3298;42.688;23.366;2023-03-23T07:48:05;51858.31;;;-145.06;74.79
6530;BME280;3298;42.688;23.366;2023-03-23T07:50:32;51852.19;;;-145.06;75.74
6530;BME280;3298;42.688;23.366;2023-03-23T07:53:01;51852.19;;;-145.06;73.57
6530;BME280;3298;42.688;23.366;2023-03-23T07:55:30;51856.28;;;-145.06;74.54
6530;BME280;3298;42.688;23.366;2023-03-23T07:57:57;51852.19;;;-145.06;73.68
6530;BME280;3298;42.688;23.366;2023-03-23T08:00:24;51839.91;;;-145.06;71.08
6530;BME280;3298;42.688;23.366;2023-03-23T08:02:53;51831.72;;;-145.06;70.89
6530;BME280;3298;42.688;23.366;2023-03-23T08:05:20;51846.03;;;-145.06;72.39
6530;BME280;3298;42.688;23.366;2023-03-23T08:07:49;51850.13;;;-145.06;73.62
6530;BME280;3298;42.688;23.366;2023-03-23T08:10:17;51866.50;;;-145.06;70.67
6530;BME280;3298;42.688;23.366;2023-03-23T08:12:45;51852.19;;;-145.06;69.25
6530;BME280;3298;42.688;23.366;2023-03-23T08:15:13;51872.66;;;-145.06;70.01
6530;BME280;3298;42.688;23.366;2023-03-23T08:17:41;51846.03;;;-145.06;69.18
6530;BME280;3298;42.688;23.366;2023-03-23T08:20:09;51844.00;;;-145.06;68.89
6530;BME280;3298;42.688;23.366;2023-03-23T08:22:38;51823.53;;;-145.06;67.90
6530;BME280;3298;42.688;23.366;2023-03-23T08:25:07;51839.91;;;-145.06;67.33
6530;BME280;3298;42.688;23.366;2023-03-23T08:27:34;51856.28;;;-145.06;66.81
6530;BME280;3298;42.688;23.366;2023-03-23T08:30:04;51848.09;;;-145.06;64.92
6530;BME280;3298;42.688;23.366;2023-03-23T08:32:32;51825.56;;;-145.06;65.18
6530;BME280;3298;42.688;23.366;2023-03-23T08:34:59;51835.81;;;-145.06;64.08
6530;BME280;3298;42.688;23.366;2023-03-23T08:37:26;51854.22;;;-145.06;63.71
6530;BME280;3298;42.688;23.366;2023-03-23T08:39:54;51856.28;;;-145.06;63.82
6530;BME280;3298;42.688;23.366;2023-03-23T08:42:22;51940.19;;;-145.06;63.53
6530;BME280;3298;42.688;23.366;2023-03-23T08:44:49;51823.53;;;-145.06;63.04
6530;BME280;3298;42.688;23.366;2023-03-23T08:47:18;51858.31;;;-145.06;61.96
6530;BME280;3298;42.688;23.366;2023-03-23T08:49:45;51833.75;;;-145.06;61.45
6530;BME280;3298;42.688;23.366;2023-03-23T08:52:11;51927.91;;;-145.06;59.82
6530;BME280;3298;42.688;23.366;2023-03-23T08:54:38;51837.84;;;-145.06;59.23
6530;BME280;3298;42.688;23.366;2023-03-23T08:57:06;51844.00;;;-145.06;58.28
6530;BME280;3298;42.688;23.366;2023-03-23T08:59:33;51823.53;;;-145.06;55.82
6530;BME280;3298;42.688;23.366;2023-03-23T09:02:00;51839.91;;;-145.06;55.82
6530;BME280;3298;42.688;23.366;2023-03-23T09:04:28;51839.91;;;-145.06;56.51
6530;BME280;3298;42.688;23.366;2023-03-23T09:06:55;51819.44;;;-145.06;52.31
6530;BME280;3298;42.688;23.366;2023-03-23T09:09:23;51811.25;;;-145.06;52.12
6530;BME280;3298;42.688;23.366;2023-03-23T09:11:50;51817.38;;;-145.06;52.62
6530;BME280;3298;42.688;23.366;2023-03-23T09:14:17;51815.34;;;-145.06;54.47
6530;BME280;3298;42.688;23.366;2023-03-23T09:16:43;51852.19;;;-145.06;52.09
6530;BME280;3298;42.688;23.366;2023-03-23T09:19:10;51827.63;;;-145.06;52.43
6530;BME280;3298;42.688;23.366;2023-03-23T09:21:39;51837.84;;;-145.06;52.44
6530;BME280;3298;42.688;23.366;2023-03-23T09:24:05;51819.44;;;-145.06;52.93
6530;BME280;3298;42.688;23.366;2023-03-23T09:26:32;51803.06;;;-145.06;53.96
6530;BME280;3298;42.688;23.366;2023-03-23T09:28:59;51821.47;;;-145.06;53.89
6530;BME280;3298;42.688;23.366;2023-03-23T09:31:26;51844.00;;;-145.06;52.31
6530;BME280;3298;42.688;23.366;2023-03-23T09:33:53;51837.84;;;-145.06;51.25
6530;BME280;3298;42.688;23.366;2023-03-23T09:36:22;51868.56;;;-145.06;50.44
6530;BME280;3298;42.688;23.366;2023-03-23T09:38:52;51829.66;;;-145.06;49.48
6530;BME280;3298;42.688;23.366;2023-03-23T09:41:39;51844.00;;;-145.06;50.29
6530;BME280;3298;42.688;23.366;2023-03-23T09:44:16;51848.09;;;-145.06;48.80
6530;BME280;3298;42.688;23.366;2023-03-23T09:46:52;51803.06;;;-145.06;48.92
6530;BME280;3298;42.688;23.366;2023-03-23T09:49:23;51862.41;;;-145.06;49.00
6530;BME280;3298;42.688;23.366;2023-03-23T09:51:54;51852.19;;;-145.06;48.42
6530;BME280;3298;42.688;23.366;2023-03-23T09:54:27;51860.38;;;-145.06;48.86
6530;BME280;3298;42.688;23.366;2023-03-23T09:56:58;51835.81;;;-145.06;49.14
6530;BME280;3298;42.688;23.366;2023-03-23T09:59:30;51848.09;;;-145.06;48.25
6530;BME280;3298;42.688;23.366;2023-03-23T10:02:01;51839.91;;;-145.06;48.74
6530;BME280;3298;42.688;23.366;2023-03-23T10:04:34;51829.66;;;-145.06;48.64
6530;BME280;3298;42.688;23.366;2023-03-23T10:07:11;51833.75;;;-145.06;48.24
6530;BME280;3298;42.688;23.366;2023-03-23T10:09:41;51844.00;;;-145.06;47.78
6530;BME280;3298;42.688;23.366;2023-03-23T10:12:23;51835.81;;;-145.06;48.20
6530;BME280;3298;42.688;23.366;2023-03-23T10:15:19;51846.03;;;-145.06;49.42
6530;BME280;3298;42.688;23.366;2023-03-23T10:17:51;51825.56;;;-145.06;49.17
6530;BME280;3298;42.688;23.366;2023-03-23T10:20:29;51848.09;;;-145.06;48.64
6530;BME280;3298;42.688;23.366;2023-03-23T10:23:05;51848.09;;;-145.06;47.60
6530;BME280;3298;42.688;23.366;2023-03-23T10:25:40;51844.00;;;-145.06;48.40
6530;BME280;3298;42.688;23.366;2023-03-23T10:28:11;51864.47;;;-145.06;47.89
6530;BME280;3298;42.688;23.366;2023-03-23T10:30:41;51831.72;;;-145.06;48.26
6530;BME280;3298;42.688;23.366;2023-03-23T10:33:14;51827.63;;;-145.06;48.17
6530;BME280;3298;42.688;23.366;2023-03-23T10:35:45;51819.44;;;-145.06;48.08
6530;BME280;3298;42.688;23.366;2023-03-23T10:38:18;51835.81;;;-145.06;47.83
6530;BME280;3298;42.688;23.366;2023-03-23T10:40:50;51841.94;;;-145.06;48.35
6530;BME280;3298;42.688;23.366;2023-03-23T10:43:19;51835.81;;;-145.06;48.05
6530;BME280;3298;42.688;23.366;2023-03-23T10:45:50;51835.81;;;-145.06;47.14
6530;BME280;3298;42.688;23.366;2023-03-23T10:48:25;51860.38;;;-145.06;46.89
6530;BME280;3298;42.688;23.366;2023-03-23T10:50:55;51844.00;;;-145.06;46.86
6530;BME280;3298;42.688;23.366;2023-03-23T10:53:26;51852.19;;;-145.06;46.72
6530;BME280;3298;42.688;23.366;2023-03-23T10:55:56;51831.72;;;-145.06;46.16
6530;BME280;3298;42.688;23.366;2023-03-23T10:58:26;51835.81;;;-145.06;45.69
6530;BME280;3298;42.688;23.366;2023-03-23T11:00:54;51852.19;;;-145.06;45.29
6530;BME280;3298;42.688;23.366;2023-03-23T11:03:28;51852.19;;;-145.06;45.25
6530;BME280;3298;42.688;23.366;2023-03-23T11:05:59;51837.84;;;-145.06;43.75
6530;BME280;3298;42.688;23.366;2023-03-23T11:08:30;51858.31;;;-145.06;39.29
6530;BME280;3298;42.688;23.366;2023-03-23T11:11:09;51962.69;;;-145.06;34.51
6530;BME280;3298;42.688;23.366;2023-03-23T11:13:40;51993.41;;;-145.06;33.40
6530;BME280;3298;42.688;23.366;2023-03-23T11:16:09;51917.66;;;-145.06;35.93
6530;BME280;3298;42.688;23.366;2023-03-23T11:18:39;51895.16;;;-145.06;39.30
6530;BME280;3298;42.688;23.366;2023-03-23T11:21:07;51866.50;;;-145.06;39.80
6530;BME280;3298;42.688;23.366;2023-03-23T11:23:37;51864.47;;;-145.06;40.91
6530;BME280;3298;42.688;23.366;2023-03-23T11:26:13;51860.38;;;-145.06;40.84
6530;BME280;3298;42.688;23.366;2023-03-23T11:28:43;51839.91;;;-145.06;40.30
6530;BME280;3298;42.688;23.366;2023-03-23T11:31:11;51854.22;;;-145.06;40.39
6530;BME280;3298;42.688;23.366;2023-03-23T11:33:41;51848.09;;;-145.06;40.85
6530;BME280;3298;42.688;23.366;2023-03-23T11:36:08;51858.31;;;-145.06;40.53
6530;BME280;3298;42.688;23.366;2023-03-23T11:38:36;51864.47;;;-145.06;40.25
6530;BME280;3298;42.688;23.366;2023-03-23T11:41:10;51880.81;;;-145.06;40.14
6530;BME280;3298;42.688;23.366;2023-03-23T11:43:45;51895.16;;;-145.06;39.71
6530;BME280;3298;42.688;23.366;2023-03-23T11:46:20;51860.38;;;-145.06;39.74
6530;BME280;3298;42.688;23.366;2023-03-23T11:48:53;51848.09;;;-145.06;40.96
6530;BME280;3298;42.688;23.366;2023-03-23T11:51:29;51872.66;;;-145.06;40.94
6530;BME280;3298;42.688;23.366;2023-03-23T11:54:15;51895.16;;;-145.06;40.25
6530;BME280;3298;42.688;23.366;2023-03-23T11:56:45;51844.00;;;-145.06;40.60
6530;BME280;3298;42.688;23.366;2023-03-23T11:59:16;51848.09;;;-145.06;40.81
6530;BME280;3298;42.688;23.366;2023-03-23T12:01:48;51848.09;;;-145.06;41.59
6530;BME280;3298;42.688;23.366;2023-03-23T12:07:46;51846.03;;;-145.06;41.56
6530;BME280;3298;42.688;23.366;2023-03-23T12:10:25;51833.75;;;-145.06;40.96
6530;BME280;3298;42.688;23.366;2023-03-23T12:13:20;51852.19;;;-145.06;41.09
6530;BME280;3298;42.688;23.366;2023-03-23T12:15:54;51864.47;;;-145.06;40.56
6530;BME280;3298;42.688;23.366;2023-03-23T12:18:43;51872.66;;;-145.06;40.63
6530;BME280;3298;42.688;23.366;2023-03-23T12:21:28;51868.56;;;-145.06;40.55
6530;BME280;3298;42.688;23.366;2023-03-23T12:24:06;51868.56;;;-145.06;40.30
6530;BME280;3298;42.688;23.366;2023-03-23T12:26:38;51878.78;;;-145.06;40.31
6530;BME280;3298;42.688;23.366;2023-03-23T12:29:20;51872.66;;;-145.06;40.47
6530;BME280;3298;42.688;23.366;2023-03-23T12:31:59;51835.81;;;-145.06;40.41
6530;BME280;3298;42.688;23.366;2023-03-23T12:34:40;51866.50;;;-145.06;40.24
6530;BME280;3298;42.688;23.366;2023-03-23T12:37:29;51833.75;;;-145.06;40.56
6530;BME280;3298;42.688;23.366;2023-03-23T12:40:30;51872.66;;;-145.06;40.54
6530;BME280;3298;42.688;23.366;2023-03-23T12:43:05;51884.91;;;-145.06;40.38
6530;BME280;3298;42.688;23.366;2023-03-23T12:46:03;51858.31;;;-145.06;40.40
6530;BME280;3298;42.688;23.366;2023-03-23T12:48:39;51884.91;;;-145.06;40.28
6530;BME280;3298;42.688;23.366;2023-03-23T12:51:13;51876.75;;;-145.06;40.62
6530;BME280;3298;42.688;23.366;2023-03-23T12:53:47;51839.91;;;-145.06;41.17
6530;BME280;3298;42.688;23.366;2023-03-23T12:56:19;51868.56;;;-145.06;41.01
6530;BME280;3298;42.688;23.366;2023-03-23T12:58:53;51848.09;;;-145.06;41.84
6530;BME280;3298;42.688;23.366;2023-03-23T13:01:24;51837.84;;;-145.06;41.28
6530;BME280;3298;42.688;23.366;2023-03-23T13:03:56;51866.50;;;-145.06;41.42
6530;BME280;3298;42.688;23.366;2023-03-23T13:06:29;51852.19;;;-145.06;41.51
6530;BME280;3298;42.688;23.366;2023-03-23T13:09:00;51864.47;;;-145.06;41.85
6530;BME280;3298;42.688;23.366;2023-03-23T13:11:32;51864.47;;;-145.06;41.91